createdAt,value
2019-05-11T00:00:23.334Z,0.00
2019-05-11T00:01:23.328Z,0.00
2019-05-11T00:02:23.311Z,0.00
2019-05-11T00:03:23.305Z,0.00
2019-05-11T00:04:23.289Z,0.00
2019-05-11T00:05:23.276Z,0.00
2019-05-11T00:06:23.272Z,0.00
2019-05-11T00:07:23.258Z,0.00
2019-05-11T00:08:23.255Z,0.00
2019-05-11T00:09:23.239Z,0.00
2019-05-11T00:10:23.760Z,0.00
2019-05-11T00:11:23.211Z,0.00
2019-05-11T00:12:23.200Z,0.00
2019-05-11T00:13:23.197Z,0.00
2019-05-11T00:14:23.179Z,0.00
2019-05-11T00:15:23.168Z,0.00
2019-05-11T00:16:23.158Z,0.00
2019-05-11T00:17:23.146Z,0.00
2019-05-11T00:18:23.149Z,0.00
2019-05-11T00:19:23.131Z,0.00
2019-05-11T00:20:23.114Z,0.00
2019-05-11T00:21:23.106Z,0.00
2019-05-11T00:22:23.093Z,0.00
2019-05-11T00:23:23.091Z,0.00
2019-05-11T00:24:23.082Z,0.00
2019-05-11T00:25:23.085Z,0.00
2019-05-11T00:26:23.048Z,0.00
2019-05-11T00:27:23.037Z,0.00
2019-05-11T00:28:23.052Z,0.00
2019-05-11T00:29:23.026Z,0.00
2019-05-11T00:30:23.006Z,0.00
2019-05-11T00:31:22.995Z,0.00
2019-05-11T00:32:23.143Z,0.00
2019-05-11T00:33:22.990Z,0.00
2019-05-11T00:34:22.963Z,0.00
2019-05-11T00:35:22.959Z,0.00
2019-05-11T00:36:22.944Z,0.00
2019-05-11T00:37:22.927Z,0.00
2019-05-11T00:38:22.930Z,0.00
2019-05-11T00:39:22.913Z,0.00
2019-05-11T00:40:22.903Z,0.00
2019-05-11T00:41:22.909Z,0.00
2019-05-11T00:42:22.874Z,0.00
2019-05-11T00:43:22.879Z,0.00
2019-05-11T00:44:22.853Z,0.00
2019-05-11T00:45:22.849Z,0.00
2019-05-11T00:46:22.831Z,0.00
2019-05-11T00:47:22.840Z,0.00
2019-05-11T00:48:22.821Z,0.00
2019-05-11T00:49:22.803Z,0.00
2019-05-11T00:50:38.072Z,0.00
2019-05-11T00:51:23.788Z,0.00
2019-05-11T00:52:22.767Z,0.00
2019-05-11T00:53:22.769Z,0.00
2019-05-11T00:54:22.749Z,0.00
2019-05-11T00:55:22.738Z,0.00
2019-05-11T00:56:22.723Z,0.00
2019-05-11T00:57:22.713Z,0.00
2019-05-11T00:58:22.720Z,0.00
2019-05-11T00:59:22.696Z,0.00
2019-05-11T01:00:22.692Z,0.00
2019-05-11T01:01:22.671Z,0.00
2019-05-11T01:02:22.657Z,0.00
2019-05-11T01:03:22.675Z,0.00
2019-05-11T01:04:22.665Z,0.00
2019-05-11T01:05:22.663Z,0.00
2019-05-11T01:06:22.626Z,0.00
2019-05-11T01:07:22.624Z,0.00
2019-05-11T01:08:22.594Z,0.00
2019-05-11T01:09:22.597Z,0.00
2019-05-11T01:10:29.051Z,0.00
2019-05-11T01:11:23.560Z,0.00
2019-05-11T01:12:22.551Z,0.00
2019-05-11T01:13:22.589Z,0.00
2019-05-11T01:14:22.540Z,0.00
2019-05-11T01:15:22.521Z,0.00
2019-05-11T01:16:22.510Z,0.00
2019-05-11T01:17:22.498Z,0.00
2019-05-11T01:18:22.491Z,0.00
2019-05-11T01:19:22.492Z,0.00
2019-05-11T01:20:22.465Z,0.00
2019-05-11T01:21:22.454Z,0.00
2019-05-11T01:22:22.444Z,0.00
2019-05-11T01:23:22.432Z,0.00
2019-05-11T01:24:22.442Z,0.00
2019-05-11T01:25:22.409Z,0.00
2019-05-11T01:26:22.400Z,0.00
2019-05-11T01:27:22.389Z,0.00
2019-05-11T01:28:22.384Z,0.00
2019-05-11T01:29:22.405Z,0.00
2019-05-11T01:30:22.359Z,0.00
2019-05-11T01:31:22.347Z,0.00
2019-05-11T01:32:22.338Z,0.00
2019-05-11T01:33:22.332Z,0.00
2019-05-11T01:34:22.324Z,0.00
2019-05-11T01:35:22.306Z,0.00
2019-05-11T01:36:22.294Z,0.00
2019-05-11T01:37:22.324Z,0.00
2019-05-11T01:38:22.269Z,0.00
2019-05-11T01:39:22.270Z,0.00
2019-05-11T01:40:22.248Z,0.00
2019-05-11T01:41:22.240Z,0.00
2019-05-11T01:42:22.228Z,0.00
2019-05-11T01:43:22.225Z,0.00
2019-05-11T01:44:22.223Z,0.00
2019-05-11T01:45:22.198Z,0.00
2019-05-11T01:46:22.185Z,0.00
2019-05-11T01:47:22.172Z,0.00
2019-05-11T01:48:22.163Z,0.00
2019-05-11T01:49:22.165Z,0.00
2019-05-11T01:50:22.157Z,0.00
2019-05-11T01:51:22.131Z,0.00
2019-05-11T01:52:22.105Z,0.00
2019-05-11T01:53:22.114Z,0.00
2019-05-11T01:54:22.132Z,0.00
2019-05-11T01:55:22.087Z,0.00
2019-05-11T01:56:22.067Z,0.00
2019-05-11T01:57:22.053Z,0.00
2019-05-11T01:58:22.056Z,0.00
2019-05-11T01:59:22.036Z,0.00
2019-05-11T02:00:22.033Z,0.00
2019-05-11T02:01:22.029Z,0.00
2019-05-11T02:02:22.013Z,0.00
2019-05-11T02:03:21.987Z,0.00
2019-05-11T02:04:21.979Z,0.00
2019-05-11T02:05:21.979Z,0.00
2019-05-11T02:06:21.973Z,0.00
2019-05-11T02:07:21.957Z,0.00
2019-05-11T02:08:21.948Z,0.00
2019-05-11T02:09:21.926Z,0.00
2019-05-11T02:10:21.932Z,0.00
2019-05-11T02:11:21.904Z,0.00
2019-05-11T02:12:21.890Z,0.00
2019-05-11T02:13:21.889Z,0.00
2019-05-11T02:14:21.873Z,0.00
2019-05-11T02:15:21.876Z,0.00
2019-05-11T02:16:21.851Z,0.00
2019-05-11T02:17:21.839Z,0.00
2019-05-11T02:18:21.834Z,0.00
2019-05-11T02:19:21.824Z,0.00
2019-05-11T02:20:21.838Z,0.00
2019-05-11T02:21:21.815Z,0.00
2019-05-11T02:22:21.783Z,0.00
2019-05-11T02:23:21.773Z,0.00
2019-05-11T02:24:21.772Z,0.00
2019-05-11T02:25:21.768Z,0.00
2019-05-11T02:26:21.743Z,0.00
2019-05-11T02:27:21.734Z,0.00
2019-05-11T02:28:21.722Z,0.00
2019-05-11T02:29:21.711Z,0.00
2019-05-11T02:30:21.716Z,0.00
2019-05-11T02:31:21.786Z,0.00
2019-05-11T02:32:21.678Z,0.00
2019-05-11T02:33:21.671Z,0.00
2019-05-11T02:34:21.656Z,0.00
2019-05-11T02:35:21.658Z,0.00
2019-05-11T02:36:21.661Z,0.00
2019-05-11T02:37:21.639Z,0.00
2019-05-11T02:38:21.613Z,0.00
2019-05-11T02:39:21.601Z,0.00
2019-05-11T02:40:21.630Z,0.00
2019-05-11T02:41:35.322Z,0.00
2019-05-11T02:42:22.573Z,0.00
2019-05-11T02:43:21.562Z,0.00
2019-05-11T02:44:21.622Z,0.00
2019-05-11T02:45:21.550Z,0.00
2019-05-11T02:46:21.529Z,0.00
2019-05-11T02:47:21.516Z,0.00
2019-05-11T02:48:21.511Z,0.00
2019-05-11T02:49:21.499Z,0.00
2019-05-11T02:50:21.497Z,0.00
2019-05-11T02:51:21.474Z,0.00
2019-05-11T02:52:21.476Z,0.00
2019-05-11T02:53:21.451Z,0.00
2019-05-11T02:54:21.445Z,0.00
2019-05-11T02:55:21.452Z,0.00
2019-05-11T02:56:21.430Z,0.00
2019-05-11T02:57:21.423Z,0.00
2019-05-11T02:58:21.403Z,0.00
2019-05-11T02:59:21.387Z,0.00
2019-05-11T03:00:21.387Z,0.00
2019-05-11T03:01:21.365Z,0.00
2019-05-11T03:02:21.353Z,0.00
2019-05-11T03:03:21.346Z,0.00
2019-05-11T03:04:21.333Z,0.00
2019-05-11T03:05:21.334Z,0.00
2019-05-11T03:06:21.349Z,0.00
2019-05-11T03:07:21.315Z,0.00
2019-05-11T03:08:21.292Z,0.00
2019-05-11T03:09:21.280Z,0.00
2019-05-11T03:10:21.303Z,0.00
2019-05-11T03:11:21.270Z,0.00
2019-05-11T03:12:21.248Z,0.00
2019-05-11T03:13:21.239Z,0.00
2019-05-11T03:14:21.226Z,0.00
2019-05-11T03:15:21.224Z,0.00
2019-05-11T03:16:21.218Z,0.00
2019-05-11T03:17:21.207Z,0.00
2019-05-11T03:18:21.188Z,0.00
2019-05-11T03:19:21.205Z,0.00
2019-05-11T03:20:21.162Z,0.00
2019-05-11T03:21:21.163Z,0.00
2019-05-11T03:22:21.142Z,0.00
2019-05-11T03:23:21.140Z,0.00
2019-05-11T03:24:24.044Z,0.00
2019-05-11T03:25:21.109Z,0.00
2019-05-11T03:26:21.233Z,0.00
2019-05-11T03:27:21.091Z,0.00
2019-05-11T03:28:21.153Z,0.00
2019-05-11T03:29:21.072Z,0.00
2019-05-11T03:30:21.056Z,4.00
2019-05-11T03:31:21.055Z,4.00
2019-05-11T03:32:21.035Z,0.00
2019-05-11T03:33:21.025Z,4.00
2019-05-11T03:34:21.014Z,4.00
2019-05-11T03:35:21.003Z,4.00
2019-05-11T03:36:21.011Z,8.00
2019-05-11T03:37:20.980Z,4.00
2019-05-11T03:38:20.971Z,8.00
2019-05-11T03:39:20.959Z,4.00
2019-05-11T03:40:20.954Z,8.00
2019-05-11T03:41:20.954Z,8.00
2019-05-11T03:42:20.969Z,12.00
2019-05-11T03:43:20.955Z,12.00
2019-05-11T03:44:20.921Z,16.00
2019-05-11T03:45:20.894Z,16.00
2019-05-11T03:46:20.997Z,20.00
2019-05-11T03:47:20.876Z,20.00
2019-05-11T03:48:20.868Z,20.00
2019-05-11T03:49:20.851Z,20.00
2019-05-11T03:50:20.850Z,16.00
2019-05-11T03:51:20.853Z,20.00
2019-05-11T03:52:20.834Z,24.00
2019-05-11T03:53:20.810Z,24.00
2019-05-11T03:54:20.811Z,28.00
2019-05-11T03:55:20.791Z,32.00
2019-05-11T03:56:20.790Z,36.00
2019-05-11T03:57:20.774Z,44.00
2019-05-11T03:58:25.495Z,56.00
2019-05-11T03:59:21.751Z,64.00
2019-05-11T04:00:20.749Z,72.00
2019-05-11T04:01:20.736Z,80.00
2019-05-11T04:02:20.712Z,88.00
2019-05-11T04:03:20.706Z,100.00
2019-05-11T04:04:20.707Z,112.00
2019-05-11T04:05:20.694Z,128.00
2019-05-11T04:06:20.693Z,148.00
2019-05-11T04:07:20.657Z,164.00
2019-05-11T04:08:20.645Z,168.00
2019-05-11T04:09:20.643Z,172.00
2019-05-11T04:10:24.918Z,180.00
2019-05-11T04:11:20.627Z,188.00
2019-05-11T04:12:34.006Z,204.00
2019-05-11T04:13:21.600Z,204.00
2019-05-11T04:14:20.582Z,208.00
2019-05-11T04:15:20.573Z,228.00
2019-05-11T04:16:20.576Z,224.00
2019-05-11T04:17:20.552Z,232.00
2019-05-11T04:18:20.540Z,248.00
2019-05-11T04:19:20.534Z,260.00
2019-05-11T04:20:20.525Z,276.00
2019-05-11T04:21:20.522Z,260.00
2019-05-11T04:22:20.496Z,260.00
2019-05-11T04:23:20.494Z,256.00
2019-05-11T04:24:20.473Z,260.00
2019-05-11T04:25:20.469Z,276.00
2019-05-11T04:26:20.464Z,284.00
2019-05-11T04:27:20.451Z,308.00
2019-05-11T04:28:20.431Z,352.00
2019-05-11T04:29:20.421Z,428.00
2019-05-11T04:30:20.414Z,572.00
2019-05-11T04:31:20.415Z,608.00
2019-05-11T04:32:20.390Z,676.00
2019-05-11T04:33:20.378Z,744.00
2019-05-11T04:34:20.373Z,756.00
2019-05-11T04:35:20.394Z,732.00
2019-05-11T04:36:20.366Z,720.00
2019-05-11T04:37:20.338Z,752.00
2019-05-11T04:38:20.323Z,820.00
2019-05-11T04:39:20.330Z,876.00
2019-05-11T04:40:20.304Z,952.00
2019-05-11T04:41:20.296Z,992.00
2019-05-11T04:42:20.297Z,1052.00
2019-05-11T04:43:20.269Z,1112.00
2019-05-11T04:44:20.259Z,1148.00
2019-05-11T04:45:20.256Z,1152.00
2019-05-11T04:46:20.236Z,1124.00
2019-05-11T04:47:20.243Z,1052.00
2019-05-11T04:48:20.216Z,976.00
2019-05-11T04:49:20.203Z,824.00
2019-05-11T04:50:20.202Z,688.00
2019-05-11T04:51:20.183Z,692.00
2019-05-11T04:52:20.195Z,684.00
2019-05-11T04:53:20.162Z,632.00
2019-05-11T04:54:20.154Z,588.00
2019-05-11T04:55:20.139Z,688.00
2019-05-11T04:56:20.131Z,888.00
2019-05-11T04:57:20.131Z,932.00
2019-05-11T04:58:20.118Z,1084.00
2019-05-11T04:59:20.107Z,1156.00
2019-05-11T05:00:20.090Z,1188.00
2019-05-11T05:01:20.075Z,1228.00
2019-05-11T05:02:20.080Z,1280.00
2019-05-11T05:03:20.051Z,1308.00
2019-05-11T05:04:20.041Z,1276.00
2019-05-11T05:05:20.033Z,1292.00
2019-05-11T05:06:22.529Z,1288.00
2019-05-11T05:07:20.026Z,1212.00
2019-05-11T05:08:21.048Z,1272.00
2019-05-11T05:09:21.091Z,1312.00
2019-05-11T05:10:22.247Z,1372.00
2019-05-11T05:11:19.967Z,1388.00
2019-05-11T05:12:20.013Z,1480.00
2019-05-11T05:13:23.432Z,1580.00
2019-05-11T05:14:20.937Z,1816.00
2019-05-11T05:15:19.929Z,2072.00
2019-05-11T05:16:19.912Z,2264.00
2019-05-11T05:17:19.915Z,2492.00
2019-05-11T05:18:19.891Z,2580.00
2019-05-11T05:19:19.884Z,2412.00
2019-05-11T05:20:19.869Z,2252.00
2019-05-11T05:21:19.858Z,2200.00
2019-05-11T05:22:19.863Z,2352.00
2019-05-11T05:23:19.839Z,2792.00
2019-05-11T05:24:19.826Z,2952.00
2019-05-11T05:25:19.815Z,2960.00
2019-05-11T05:26:19.821Z,2948.00
2019-05-11T05:27:19.837Z,2804.00
2019-05-11T05:28:19.782Z,2764.00
2019-05-11T05:29:19.781Z,2632.00
2019-05-11T05:30:19.763Z,2620.00
2019-05-11T05:31:19.774Z,2552.00
2019-05-11T05:32:19.752Z,2460.00
2019-05-11T05:33:19.734Z,2528.00
2019-05-11T05:34:19.722Z,2516.00
2019-05-11T05:35:19.710Z,2200.00
2019-05-11T05:36:19.699Z,1816.00
2019-05-11T05:37:19.697Z,1612.00
2019-05-11T05:38:19.677Z,1368.00
2019-05-11T05:39:19.664Z,1632.00
2019-05-11T05:40:19.654Z,1988.00
2019-05-11T05:41:19.645Z,1772.00
2019-05-11T05:42:19.643Z,2184.00
2019-05-11T05:43:27.421Z,1996.00
2019-05-11T05:44:20.614Z,1400.00
2019-05-11T05:45:19.605Z,1204.00
2019-05-11T05:46:19.593Z,1016.00
2019-05-11T05:47:19.592Z,896.00
2019-05-11T05:48:19.578Z,900.00
2019-05-11T05:49:19.557Z,580.00
2019-05-11T05:50:19.546Z,604.00
2019-05-11T05:51:19.539Z,824.00
2019-05-11T05:52:19.541Z,856.00
2019-05-11T05:53:19.548Z,1000.00
2019-05-11T05:54:19.507Z,1004.00
2019-05-11T05:55:19.493Z,908.00
2019-05-11T05:56:19.481Z,836.00
2019-05-11T05:57:19.499Z,840.00
2019-05-11T05:58:19.465Z,1028.00
2019-05-11T05:59:19.450Z,960.00
2019-05-11T06:00:19.442Z,888.00
2019-05-11T06:01:19.426Z,924.00
2019-05-11T06:02:19.418Z,1092.00
2019-05-11T06:03:19.410Z,1176.00
2019-05-11T06:04:19.395Z,1224.00
2019-05-11T06:05:19.382Z,1400.00
2019-05-11T06:06:19.375Z,1512.00
2019-05-11T06:07:19.373Z,1308.00
2019-05-11T06:08:19.358Z,1092.00
2019-05-11T06:09:19.340Z,1048.00
2019-05-11T06:10:19.330Z,988.00
2019-05-11T06:11:19.321Z,912.00
2019-05-11T06:12:19.308Z,1024.00
2019-05-11T06:13:19.308Z,1148.00
2019-05-11T06:14:19.287Z,1060.00
2019-05-11T06:15:19.283Z,964.00
2019-05-11T06:16:19.272Z,816.00
2019-05-11T06:17:19.260Z,872.00
2019-05-11T06:18:19.276Z,1024.00
2019-05-11T06:19:19.233Z,1424.00
2019-05-11T06:20:19.223Z,1484.00
2019-05-11T06:21:19.211Z,1460.00
2019-05-11T06:22:19.209Z,1728.00
2019-05-11T06:23:19.202Z,1848.00
2019-05-11T06:24:19.208Z,1984.00
2019-05-11T06:25:19.176Z,2296.00
2019-05-11T06:26:19.160Z,2372.00
2019-05-11T06:27:19.197Z,2516.00
2019-05-11T06:28:19.151Z,2608.00
2019-05-11T06:29:21.689Z,2828.00
2019-05-11T06:30:19.114Z,2592.00
2019-05-11T06:31:19.125Z,2188.00
2019-05-11T06:32:19.094Z,2304.00
2019-05-11T06:33:19.095Z,2756.00
2019-05-11T06:34:19.073Z,3416.00
2019-05-11T06:35:22.415Z,3620.00
2019-05-11T06:36:19.052Z,3992.00
2019-05-11T06:37:19.038Z,4708.00
2019-05-11T06:38:19.042Z,5464.00
2019-05-11T06:39:19.037Z,6024.00
2019-05-11T06:40:19.009Z,6780.00
2019-05-11T06:41:18.997Z,7244.00
2019-05-11T06:42:18.984Z,7164.00
2019-05-11T06:43:18.986Z,6860.00
2019-05-11T06:44:18.963Z,6652.00
2019-05-11T06:45:18.951Z,5780.00
2019-05-11T06:46:18.943Z,4696.00
2019-05-11T06:47:18.939Z,3772.00
2019-05-11T06:48:18.931Z,3140.00
2019-05-11T06:49:18.909Z,2676.00
2019-05-11T06:50:18.899Z,2348.00
2019-05-11T06:51:18.891Z,2364.00
2019-05-11T06:52:18.876Z,2524.00
2019-05-11T06:53:18.891Z,2160.00
2019-05-11T06:54:18.855Z,1972.00
2019-05-11T06:55:18.844Z,2148.00
2019-05-11T06:56:18.835Z,2368.00
2019-05-11T06:57:18.826Z,2988.00
2019-05-11T06:58:18.826Z,3160.00
2019-05-11T06:59:18.814Z,3136.00
2019-05-11T07:00:18.796Z,4148.00
2019-05-11T07:01:18.778Z,4396.00
2019-05-11T07:02:18.772Z,3984.00
2019-05-11T07:03:18.777Z,3392.00
2019-05-11T07:04:18.751Z,3276.00
2019-05-11T07:05:18.735Z,3344.00
2019-05-11T07:06:18.725Z,3364.00
2019-05-11T07:07:18.714Z,3788.00
2019-05-11T07:08:18.715Z,4504.00
2019-05-11T07:09:18.705Z,5348.00
2019-05-11T07:10:18.682Z,5848.00
2019-05-11T07:11:18.673Z,5752.00
2019-05-11T07:12:18.801Z,6160.00
2019-05-11T07:13:18.938Z,6504.00
2019-05-11T07:14:20.947Z,5628.00
2019-05-11T07:15:18.632Z,5420.00
2019-05-11T07:16:18.617Z,5028.00
2019-05-11T07:17:18.611Z,4456.00
2019-05-11T07:18:18.610Z,4092.00
2019-05-11T07:19:18.598Z,3616.00
2019-05-11T07:20:18.574Z,3440.00
2019-05-11T07:21:18.568Z,3280.00
2019-05-11T07:22:18.551Z,3388.00
2019-05-11T07:23:18.541Z,3364.00
2019-05-11T07:24:18.543Z,3028.00
2019-05-11T07:25:18.521Z,3084.00
2019-05-11T07:26:18.508Z,3356.00
2019-05-11T07:27:18.500Z,3548.00
2019-05-11T07:28:18.488Z,3552.00
2019-05-11T07:29:18.492Z,3656.00
2019-05-11T07:30:18.466Z,4116.00
2019-05-11T07:31:18.458Z,4140.00
2019-05-11T07:32:25.121Z,4948.00
2019-05-11T07:33:19.431Z,5724.00
2019-05-11T07:34:18.603Z,5932.00
2019-05-11T07:35:18.908Z,6180.00
2019-05-11T07:36:18.407Z,6920.00
2019-05-11T07:37:18.634Z,7756.00
2019-05-11T07:38:18.577Z,7720.00
2019-05-11T07:39:18.730Z,7628.00
2019-05-11T07:40:18.932Z,6900.00
2019-05-11T07:41:18.347Z,6056.00
2019-05-11T07:42:18.337Z,6008.00
2019-05-11T07:43:18.877Z,6212.00
2019-05-11T07:44:19.141Z,6656.00
2019-05-11T07:45:19.315Z,7052.00
2019-05-11T07:46:18.408Z,7644.00
2019-05-11T07:47:18.796Z,8668.00
2019-05-11T07:48:18.766Z,10956.00
2019-05-11T07:49:18.271Z,11496.00
2019-05-11T07:50:18.389Z,11168.00
2019-05-11T07:51:18.457Z,10516.00
2019-05-11T07:52:18.342Z,10180.00
2019-05-11T07:53:18.718Z,9496.00
2019-05-11T07:54:18.813Z,8780.00
2019-05-11T07:55:18.985Z,8492.00
2019-05-11T07:56:18.933Z,7876.00
2019-05-11T07:57:18.715Z,7768.00
2019-05-11T07:58:20.349Z,7784.00
2019-05-11T07:59:18.483Z,8024.00
2019-05-11T08:00:18.747Z,8196.00
2019-05-11T08:01:18.882Z,7988.00
2019-05-11T08:02:18.125Z,7680.00
2019-05-11T08:03:18.245Z,7588.00
2019-05-11T08:04:18.456Z,7632.00
2019-05-11T08:05:18.220Z,7616.00
2019-05-11T08:06:18.531Z,7924.00
2019-05-11T08:07:18.269Z,7532.00
2019-05-11T08:08:18.248Z,7000.00
2019-05-11T08:09:18.790Z,6940.00
2019-05-11T08:10:18.671Z,6828.00
2019-05-11T08:11:18.337Z,7040.00
2019-05-11T08:12:19.227Z,6920.00
2019-05-11T08:13:18.006Z,7068.00
2019-05-11T08:14:18.380Z,7396.00
2019-05-11T08:15:18.488Z,7376.00
2019-05-11T08:16:18.669Z,7316.00
2019-05-11T08:17:18.639Z,7920.00
2019-05-11T08:18:18.933Z,8104.00
2019-05-11T08:19:18.690Z,8352.00
2019-05-11T08:20:18.721Z,8656.00
2019-05-11T08:21:18.079Z,8840.00
2019-05-11T08:22:22.166Z,8972.00
2019-05-11T08:23:18.893Z,9112.00
2019-05-11T08:24:18.142Z,9048.00
2019-05-11T08:25:18.356Z,9268.00
2019-05-11T08:26:19.018Z,9280.00
2019-05-11T08:27:18.674Z,8856.00
2019-05-11T08:28:18.410Z,8620.00
2019-05-11T08:29:18.527Z,8132.00
2019-05-11T08:30:18.852Z,7632.00
2019-05-11T08:31:18.686Z,7236.00
2019-05-11T08:32:18.365Z,6724.00
2019-05-11T08:33:18.287Z,6172.00
2019-05-11T08:34:18.079Z,6060.00
2019-05-11T08:35:17.985Z,6248.00
2019-05-11T08:36:18.511Z,6536.00
2019-05-11T08:37:18.916Z,7380.00
2019-05-11T08:38:18.150Z,8508.00
2019-05-11T08:39:18.337Z,10016.00
2019-05-11T08:40:18.436Z,11168.00
2019-05-11T08:41:18.500Z,11416.00
2019-05-11T08:42:18.032Z,11360.00
2019-05-11T08:43:18.071Z,11496.00
2019-05-11T08:44:18.275Z,11632.00
2019-05-11T08:45:24.096Z,11156.00
2019-05-11T08:46:18.785Z,10076.00
2019-05-11T08:47:17.909Z,9232.00
2019-05-11T08:48:18.691Z,9104.00
2019-05-11T08:49:19.041Z,10036.00
2019-05-11T08:50:18.755Z,10896.00
2019-05-11T08:51:18.700Z,9704.00
2019-05-11T08:52:18.676Z,7020.00
2019-05-11T08:53:17.950Z,5244.00
2019-05-11T08:54:18.314Z,3924.00
2019-05-11T08:55:18.996Z,3468.00
2019-05-11T08:56:18.940Z,3516.00
2019-05-11T08:57:18.065Z,4092.00
2019-05-11T08:58:19.460Z,4148.00
2019-05-11T08:59:18.681Z,5376.00
2019-05-11T09:00:18.034Z,6368.00
2019-05-11T09:01:18.597Z,9668.00
2019-05-11T09:02:18.584Z,11460.00
2019-05-11T09:03:17.961Z,7600.00
2019-05-11T09:04:18.265Z,5428.00
2019-05-11T09:05:18.744Z,6644.00
2019-05-11T09:06:18.037Z,9244.00
2019-05-11T09:07:18.418Z,10132.00
2019-05-11T09:08:18.812Z,10340.00
2019-05-11T09:09:18.159Z,9568.00
2019-05-11T09:10:18.624Z,9440.00
2019-05-11T09:11:19.065Z,10036.00
2019-05-11T09:12:18.333Z,10880.00
2019-05-11T09:13:18.511Z,11644.00
2019-05-11T09:14:18.821Z,11388.00
2019-05-11T09:15:32.646Z,9028.00
2019-05-11T09:16:19.171Z,8448.00
2019-05-11T09:17:18.246Z,8104.00
2019-05-11T09:18:18.757Z,8024.00
2019-05-11T09:19:17.882Z,7520.00
2019-05-11T09:20:18.000Z,7508.00
2019-05-11T09:21:19.119Z,7404.00
2019-05-11T09:22:18.635Z,6444.00
2019-05-11T09:23:32.470Z,5784.00
2019-05-11T09:24:18.955Z,5368.00
2019-05-11T09:25:18.369Z,5696.00
2019-05-11T09:26:18.135Z,5720.00
2019-05-11T09:27:18.409Z,6004.00
2019-05-11T09:28:17.996Z,6196.00
2019-05-11T09:29:18.009Z,5916.00
2019-05-11T09:30:18.476Z,6204.00
2019-05-11T09:31:18.865Z,5912.00
2019-05-11T09:32:17.946Z,5540.00
2019-05-11T09:33:20.454Z,5084.00
2019-05-11T09:34:18.081Z,5076.00
2019-05-11T09:35:18.855Z,4940.00
2019-05-11T09:36:18.090Z,4704.00
2019-05-11T09:37:18.386Z,4184.00
2019-05-11T09:38:18.529Z,4128.00
2019-05-11T09:39:17.759Z,3844.00
2019-05-11T09:40:18.220Z,3224.00
2019-05-11T09:41:18.023Z,3568.00
2019-05-11T09:42:17.981Z,4428.00
2019-05-11T09:43:17.878Z,4464.00
2019-05-11T09:44:18.244Z,4312.00
2019-05-11T09:45:18.669Z,4308.00
2019-05-11T09:46:18.763Z,4000.00
2019-05-11T09:47:18.925Z,4472.00
2019-05-11T09:48:17.952Z,4596.00
2019-05-11T09:49:18.507Z,4604.00
2019-05-11T09:50:17.916Z,4780.00
2019-05-11T09:51:18.454Z,4884.00
2019-05-11T09:52:18.405Z,5036.00
2019-05-11T09:53:17.725Z,5188.00
2019-05-11T09:54:18.272Z,5208.00
2019-05-11T09:55:19.012Z,5664.00
2019-05-11T09:56:18.345Z,6528.00
2019-05-11T09:57:18.496Z,7068.00
2019-05-11T09:58:19.783Z,7040.00
2019-05-11T09:59:17.873Z,7656.00
2019-05-11T10:00:17.888Z,8392.00
2019-05-11T10:01:18.253Z,9220.00
2019-05-11T10:02:20.705Z,10296.00
2019-05-11T10:03:18.773Z,11244.00
2019-05-11T10:04:18.115Z,11924.00
2019-05-11T10:05:18.845Z,12536.00
2019-05-11T10:06:19.072Z,11384.00
2019-05-11T10:07:18.079Z,10516.00
2019-05-11T10:08:18.302Z,10172.00
2019-05-11T10:09:18.666Z,10936.00
2019-05-11T10:10:18.674Z,13044.00
2019-05-11T10:11:18.853Z,13748.00
2019-05-11T10:12:18.096Z,15472.00
2019-05-11T10:13:18.557Z,16576.00
2019-05-11T10:14:18.738Z,16960.00
2019-05-11T10:15:18.746Z,15144.00
2019-05-11T10:16:17.843Z,12560.00
2019-05-11T10:17:18.227Z,11360.00
2019-05-11T10:18:18.603Z,10816.00
2019-05-11T10:19:17.930Z,8816.00
2019-05-11T10:20:18.192Z,9824.00
2019-05-11T10:21:18.840Z,11272.00
2019-05-11T10:22:18.600Z,9756.00
2019-05-11T10:23:18.606Z,8272.00
2019-05-11T10:24:17.742Z,8920.00
2019-05-11T10:25:18.123Z,9512.00
2019-05-11T10:26:18.635Z,9180.00
2019-05-11T10:27:18.738Z,10000.00
2019-05-11T10:28:17.870Z,10884.00
2019-05-11T10:29:18.259Z,12488.00
2019-05-11T10:30:18.639Z,14604.00
2019-05-11T10:31:18.147Z,13960.00
2019-05-11T10:32:18.270Z,13656.00
2019-05-11T10:33:18.680Z,13268.00
2019-05-11T10:34:18.013Z,13572.00
2019-05-11T10:35:18.394Z,13340.00
2019-05-11T10:36:18.746Z,12536.00
2019-05-11T10:37:17.648Z,11996.00
2019-05-11T10:38:18.006Z,11992.00
2019-05-11T10:39:18.645Z,12756.00
2019-05-11T10:40:18.659Z,13968.00
2019-05-11T10:41:18.068Z,14860.00
2019-05-11T10:42:18.034Z,15028.00
2019-05-11T10:43:18.392Z,15176.00
2019-05-11T10:44:18.601Z,15864.00
2019-05-11T10:45:18.029Z,16512.00
2019-05-11T10:46:22.455Z,17664.00
2019-05-11T10:47:18.444Z,17568.00
2019-05-11T10:48:17.757Z,16512.00
2019-05-11T10:49:18.316Z,15424.00
2019-05-11T10:50:18.564Z,13764.00
2019-05-11T10:51:18.468Z,12020.00
2019-05-11T10:52:18.040Z,9216.00
2019-05-11T10:53:18.327Z,8728.00
2019-05-11T10:54:18.490Z,9860.00
2019-05-11T10:55:19.002Z,10520.00
2019-05-11T10:56:17.861Z,10920.00
2019-05-11T10:57:18.721Z,11912.00
2019-05-11T10:58:18.359Z,12392.00
2019-05-11T10:59:18.546Z,13316.00
2019-05-11T11:00:17.817Z,14340.00
2019-05-11T11:01:18.202Z,14680.00
2019-05-11T11:02:18.352Z,14324.00
2019-05-11T11:03:17.893Z,13808.00
2019-05-11T11:04:18.282Z,14288.00
2019-05-11T11:05:18.542Z,15864.00
2019-05-11T11:06:18.597Z,13504.00
2019-05-11T11:07:17.274Z,10684.00
2019-05-11T11:08:18.379Z,10168.00
2019-05-11T11:09:17.787Z,9560.00
2019-05-11T11:10:18.170Z,6936.00
2019-05-11T11:11:18.274Z,6784.00
2019-05-11T11:12:16.078Z,6544.00
2019-05-11T11:13:16.056Z,8680.00
2019-05-11T11:14:18.060Z,9672.00
2019-05-11T11:15:18.187Z,9672.00
2019-05-11T11:16:34.331Z,9560.00
2019-05-11T11:17:19.185Z,9272.00
2019-05-11T11:18:16.003Z,9296.00
2019-05-11T11:19:18.183Z,9720.00
2019-05-11T11:20:18.478Z,9472.00
2019-05-11T11:21:20.110Z,9756.00
2019-05-11T11:22:35.736Z,10084.00
2019-05-11T11:23:17.713Z,10172.00
2019-05-11T11:24:18.026Z,9468.00
2019-05-11T11:25:17.948Z,8912.00
2019-05-11T11:26:18.210Z,8908.00
2019-05-11T11:27:15.915Z,9792.00
2019-05-11T11:28:17.550Z,11048.00
2019-05-11T11:29:17.879Z,11044.00
2019-05-11T11:30:17.977Z,11620.00
2019-05-11T11:31:18.381Z,13248.00
2019-05-11T11:32:15.863Z,13036.00
2019-05-11T11:33:17.952Z,12940.00
2019-05-11T11:34:15.828Z,13932.00
2019-05-11T11:35:15.818Z,13204.00
2019-05-11T11:36:17.954Z,12360.00
2019-05-11T11:37:17.575Z,12132.00
2019-05-11T11:38:17.868Z,14300.00
2019-05-11T11:39:15.776Z,16928.00
2019-05-11T11:40:17.738Z,18976.00
2019-05-11T11:41:17.865Z,20128.00
2019-05-11T11:42:17.763Z,18816.00
2019-05-11T11:43:17.887Z,19840.00
2019-05-11T11:44:18.313Z,17952.00
2019-05-11T11:45:18.108Z,17408.00
2019-05-11T11:46:15.701Z,17600.00
2019-05-11T11:47:20.947Z,20032.00
2019-05-11T11:48:18.708Z,18464.00
2019-05-11T11:49:15.669Z,13692.00
2019-05-11T11:50:17.645Z,10648.00
2019-05-11T11:51:15.661Z,10532.00
2019-05-11T11:52:15.637Z,11336.00
2019-05-11T11:53:15.634Z,10980.00
2019-05-11T11:54:17.955Z,9468.00
2019-05-11T11:55:15.606Z,8896.00
2019-05-11T11:56:15.595Z,8120.00
2019-05-11T11:57:15.584Z,7360.00
2019-05-11T11:58:20.117Z,7052.00
2019-05-11T11:59:17.850Z,8256.00
2019-05-11T12:00:18.118Z,10364.00
2019-05-11T12:01:30.099Z,12056.00
2019-05-11T12:02:15.532Z,13064.00
2019-05-11T12:03:15.526Z,13956.00
2019-05-11T12:04:15.510Z,16112.00
2019-05-11T12:05:17.552Z,13532.00
2019-05-11T12:06:17.953Z,11952.00
2019-05-11T12:07:17.769Z,8236.00
2019-05-11T12:08:15.470Z,4724.00
2019-05-11T12:09:18.022Z,3400.00
2019-05-11T12:10:15.447Z,3364.00
2019-05-11T12:11:15.437Z,4556.00
2019-05-11T12:12:15.425Z,6648.00
2019-05-11T12:13:15.416Z,7656.00
2019-05-11T12:14:15.411Z,8608.00
2019-05-11T12:15:17.621Z,9012.00
2019-05-11T12:16:17.765Z,11728.00
2019-05-11T12:17:18.036Z,10596.00
2019-05-11T12:18:15.363Z,8064.00
2019-05-11T12:19:15.350Z,9876.00
2019-05-11T12:20:15.339Z,13264.00
2019-05-11T12:21:15.330Z,15332.00
2019-05-11T12:22:15.316Z,14368.00
2019-05-11T12:23:15.310Z,15496.00
2019-05-11T12:24:15.297Z,18496.00
2019-05-11T12:25:15.285Z,15228.00